Time;durP1;ratioP1;P1;durP2;ratioP2;P2;SDS_P1;SDS_P2;PMS_P1;PMS_P2;Temp;Humidity;BMP_temperature;BMP_pressure;BME280_temperature;BME280_humidity;BME280_pressure;Samples;Min_cycle;Max_cycle;Signal;HPM_P1;HPM_P2
2023/07/13 00:05:58;;;;;;;14.80;10.80;;;;;;;20.49;74.23;98208.52;435321;1251;98102;-41
2023/07/13 00:16:06;;;;;;;15.70;11.90;;;;;;;20.44;74.84;98219.45;434917;1254;393489;-43
2023/07/13 00:26:14;;;;;;;14.60;11.00;;;;;;;20.60;74.93;98228.90;435292;1251;97895;-41
2023/07/13 00:36:22;;;;;;;12.40;10.70;;;;;;;20.57;75.28;98239.87;435406;1255;110617;-42
2023/07/13 00:46:30;;;;;;;13.00;10.40;;;;;;;20.74;75.23;98244.30;435309;1251;107912;-41
2023/07/13 00:56:40;;;;;;;11.60;12.40;;;;;;;20.68;75.45;98235.31;435279;1251;97902;-42
2023/07/13 01:06:47;;;;;;;10.90;9.50;;;;;;;20.77;75.54;98222.09;435167;1257;107666;-42
2023/07/13 01:17:00;;;;;;;12.10;8.40;;;;;;;20.84;75.42;98227.73;436077;1252;99217;-42
2023/07/13 01:27:10;;;;;;;10.30;9.00;;;;;;;20.88;75.22;98241.88;435288;1256;111677;-41
2023/07/13 01:37:17;;;;;;;10.80;9.00;;;;;;;20.78;75.22;98254.86;435272;1251;108587;-43
2023/07/13 01:47:26;;;;;;;9.80;8.10;;;;;;;20.62;75.24;98271.36;435310;1251;99221;-42
2023/07/13 01:57:33;;;;;;;12.00;8.60;;;;;;;20.48;75.46;98263.02;435344;1251;107544;-42
2023/07/13 02:07:40;;;;;;;11.70;7.40;;;;;;;20.55;75.82;98252.90;435200;1253;99240;-42
2023/07/13 02:17:47;;;;;;;16.30;7.90;;;;;;;20.48;75.96;98236.95;435252;1251;110713;-42
2023/07/13 02:27:54;;;;;;;12.80;8.20;;;;;;;20.48;75.94;98243.88;435218;1255;108280;-41
2023/07/13 02:38:01;;;;;;;10.10;8.40;;;;;;;20.57;76.24;98250.23;435329;1254;99241;-42
2023/07/13 02:48:09;;;;;;;10.30;6.80;;;;;;;20.52;76.12;98247.98;435212;1255;108495;-44
2023/07/13 03:08:22;;;;;;;7.90;7.10;;;;;;;20.30;76.27;98237.65;435160;1257;111418;-42
2023/07/13 03:18:30;;;;;;;7.00;6.30;;;;;;;20.15;76.34;98244.68;435351;1253;108535;-43
2023/07/13 03:38:43;;;;;;;6.30;5.20;;;;;;;19.68;77.04;98232.40;435173;1255;108458;-45
2023/07/13 03:48:49;;;;;;;7.00;5.00;;;;;;;19.27;78.14;98185.05;435137;1256;99976;-43
2023/07/13 03:58:56;;;;;;;9.10;6.00;;;;;;;19.29;78.07;98186.79;435269;1256;112524;-43
2023/07/13 04:19:13;;;;;;;5.50;4.70;;;;;;;19.60;78.60;98194.89;435219;1255;99129;-44
2023/07/13 04:29:20;;;;;;;9.50;5.60;;;;;;;19.74;78.58;98213.41;435221;1255;107226;-43
2023/07/13 04:39:27;;;;;;;6.50;4.40;;;;;;;19.92;78.47;98225.27;435202;1256;99366;-43
2023/07/13 04:49:34;;;;;;;6.40;5.50;;;;;;;19.96;78.36;98232.53;435351;1256;111096;-43
2023/07/13 05:09:47;;;;;;;8.90;7.90;;;;;;;20.82;78.74;98229.71;435375;1254;99243;-42
2023/07/13 05:19:54;;;;;;;15.40;10.00;;;;;;;21.93;78.63;98227.91;435361;1256;108492;-43
2023/07/13 05:30:00;;;;;;;12.70;9.50;;;;;;;22.64;77.37;98242.48;435287;1251;99228;-42
2023/07/13 05:40:07;;;;;;;;;;;;;;;22.78;76.92;98250.04;435250;1256;112351;-41
2023/07/13 05:50:14;;;;;;;18.60;9.50;;;;;;;23.24;76.07;98244.99;435310;1251;108308;-41
2023/07/13 06:00:18;;;;;;;;;;;;;;;23.59;75.96;98240.22;435222;1256;99276;-42
2023/07/13 06:10:25;;;;;;;10.00;8.90;;;;;;;24.25;75.05;98226.52;435425;1254;109113;-42
2023/07/13 06:20:30;;;;;;;9.10;7.30;;;;;;;25.06;74.36;98236.34;435470;1254;98969;-42
2023/07/13 06:30:37;;;;;;;7.20;6.50;;;;;;;25.28;71.74;98239.60;435331;1256;111132;-40
2023/07/13 06:40:41;;;;;;;;;;;;;;;25.45;70.89;98249.37;435504;1254;108798;-40
2023/07/13 06:50:47;;;;;;;7.70;6.90;;;;;;;25.79;70.59;98261.02;435400;1251;98007;-41
2023/07/13 07:00:53;;;;;;;11.30;7.00;;;;;;;25.89;69.61;98276.19;435366;1254;107918;-42
2023/07/13 07:11:00;;;;;;;6.80;6.20;;;;;;;25.71;69.38;98277.24;435303;1256;98248;-41
2023/07/13 07:21:08;;;;;;;8.30;6.80;;;;;;;25.72;68.85;98284.44;434836;1254;112929;-42
2023/07/13 07:31:16;;;;;;;6.80;6.10;;;;;;;25.24;68.97;98309.20;435326;1257;107392;-40
2023/07/13 07:41:26;;;;;;;8.30;6.80;;;;;;;24.61;68.91;98321.47;435262;1253;98035;-40
2023/07/13 07:51:36;;;;;;;13.40;7.90;;;;;;;23.83;69.63;98335.92;435232;1257;107698;-41
2023/07/13 08:01:43;;;;;;;;;;;;;;;22.92;70.33;98349.81;435098;1257;99318;-42
2023/07/13 08:12:11;;;;;;;7.60;4.10;;;;;;;21.69;70.67;98367.98;435393;1256;111715;-41
2023/07/13 08:22:21;;;;;;;4.80;3.60;;;;;;;21.16;70.45;98374.86;435220;1251;109833;-42
2023/07/13 08:32:28;;;;;;;9.70;3.00;;;;;;;20.99;70.54;98368.68;435270;1265;98341;-41
2023/07/13 08:42:33;;;;;;;6.00;2.70;;;;;;;20.85;70.77;98363.73;435149;1251;107198;-45
2023/07/13 08:52:43;;;;;;;7.20;2.50;;;;;;;20.77;70.19;98368.33;435466;1251;99214;-42
2023/07/13 09:02:57;;;;;;;7.60;2.10;;;;;;;20.55;69.98;98372.52;435250;1257;110882;-40
2023/07/13 09:13:08;;;;;;;3.60;1.60;;;;;;;20.19;70.32;98394.08;435196;1256;107280;-42
2023/07/13 09:33:22;;;;;;;9.40;3.10;;;;;;;19.06;71.33;98440.11;435071;1251;108649;-42
2023/07/13 09:43:30;;;;;;;6.50;1.70;;;;;;;18.66;72.36;98434.25;435418;1255;99215;-41
2023/07/13 09:53:37;;;;;;;5.70;2.50;;;;;;;18.32;73.01;98455.35;435224;1255;111960;-42
2023/07/13 10:03:53;;;;;;;3.70;2.20;;;;;;;17.86;73.84;98481.73;435506;1254;107696;-43
2023/07/13 10:14:02;;;;;;;6.60;1.80;;;;;;;17.53;74.46;98474.63;435295;1256;99214;-42
2023/07/13 10:24:13;;;;;;;4.50;2.30;;;;;;;17.24;75.06;98463.43;435410;1255;107687;-43
2023/07/13 10:34:23;;;;;;;5.30;2.10;;;;;;;17.04;75.89;98467.45;435226;1256;99240;-43
2023/07/13 10:44:32;;;;;;;2.20;1.70;;;;;;;17.19;76.05;98461.54;435331;1266;111653;-44
2023/07/13 10:54:38;;;;;;;3.80;2.00;;;;;;;17.47;76.72;98451.15;435081;1256;108236;-43
2023/07/13 11:04:48;;;;;;;4.00;1.80;;;;;;;17.61;76.56;98442.81;435285;1256;99145;-43
2023/07/13 11:25:22;;;;;;;3.00;2.20;;;;;;;17.68;76.37;98410.30;435138;1251;99240;-44
2023/07/13 11:35:30;;;;;;;5.30;2.20;;;;;;;17.81;76.67;98401.81;435283;1256;110228;-43
2023/07/13 11:45:36;;;;;;;2.70;1.90;;;;;;;18.06;76.69;98410.50;435298;1256;107145;-44
2023/07/13 11:55:54;;;;;;;5.20;2.20;;;;;;;18.42;76.88;98406.83;435412;1256;99241;-44
2023/07/13 12:05:59;;;;;;;6.90;2.90;;;;;;;18.76;77.17;98444.52;435365;1256;107662;-45
2023/07/13 12:26:22;;;;;;;2.90;2.30;;;;;;;19.20;77.40;98478.45;435271;1256;111170;-43
2023/07/13 12:36:30;;;;;;;5.70;3.30;;;;;;;19.36;77.41;98482.73;435262;1256;107478;-44
2023/07/13 12:46:36;;;;;;;8.50;3.10;;;;;;;19.48;77.53;98478.56;435210;1251;98631;-43
2023/07/13 12:56:41;;;;;;;4.30;3.60;;;;;;;19.59;77.46;98490.36;435215;1251;108176;-43
2023/07/13 13:06:46;;;;;;;3.30;3.00;;;;;;;19.86;77.41;98486.14;435239;1257;98865;-42
2023/07/13 13:16:55;;;;;;;4.80;3.40;;;;;;;20.34;77.42;98487.41;435244;1256;111789;-43
2023/07/13 13:27:02;;;;;;;3.60;3.30;;;;;;;20.71;77.07;98493.10;435420;1261;109152;-43
2023/07/13 13:37:16;;;;;;;3.40;3.00;;;;;;;20.80;76.79;98499.49;435346;1251;99200;-42
2023/07/13 13:47:30;;;;;;;4.10;2.50;;;;;;;20.81;76.93;98518.19;435430;1255;108494;-43
2023/07/13 13:57:37;;;;;;;3.20;2.50;;;;;;;21.22;77.05;98517.98;435284;1256;98574;-42
2023/07/13 14:17:51;;;;;;;4.10;2.70;;;;;;;22.17;75.62;98516.62;435177;1257;109058;-43
2023/07/13 14:27:58;;;;;;;3.50;2.70;;;;;;;22.21;75.15;98520.68;435267;1251;98011;-41
2023/07/13 14:38:09;;;;;;;4.40;2.90;;;;;;;22.19;74.44;98521.48;435376;1264;108678;-42
2023/07/13 14:48:16;;;;;;;3.20;2.80;;;;;;;22.10;74.16;98534.53;435192;1260;99221;-43
2023/07/13 14:58:24;;;;;;;2.80;2.60;;;;;;;22.37;73.92;98513.86;435348;1256;111262;-42
2023/07/13 15:08:31;;;;;;;2.60;2.40;;;;;;;22.46;73.35;98494.86;435272;1251;108101;-42
2023/07/13 15:18:40;;;;;;;;;;;;;;;22.61;72.67;98485.59;435222;1259;98011;-43
2023/07/13 15:28:48;;;;;;;4.70;2.60;;;;;;;22.50;72.17;98495.60;435289;1257;108039;-44
2023/07/13 15:38:56;;;;;;;5.90;4.10;;;;;;;22.42;71.64;98488.62;435325;1258;98410;-42
2023/07/13 15:49:10;;;;;;;4.60;2.70;;;;;;;22.39;71.39;98489.81;435323;1255;110778;-46
2023/07/13 15:59:17;;;;;;;7.40;3.50;;;;;;;22.35;71.13;98490.94;435493;1251;108316;-42
2023/07/13 16:19:30;;;;;;;;;;;;;;;22.23;69.79;98500.35;435384;1251;107883;-42
2023/07/13 16:29:38;;;;;;;5.90;1.90;;;;;;;22.13;69.04;98514.89;435274;1251;98827;-41
2023/07/13 16:39:43;;;;;;;5.00;2.20;;;;;;;22.05;68.56;98506.15;435361;1257;111513;-42
2023/07/13 16:49:51;;;;;;;8.10;1.70;;;;;;;22.08;68.03;98496.27;435295;1257;108056;-42
2023/07/13 17:00:00;;;;;;;3.20;1.70;;;;;;;22.10;67.43;98503.20;435534;1251;99373;-42
2023/07/13 17:20:23;;;;;;;2.00;1.80;;;;;;;21.95;67.59;98519.98;435479;1251;99235;-43
2023/07/13 17:30:30;;;;;;;5.00;2.70;;;;;;;21.85;67.54;98529.73;435277;1256;112207;-42
2023/07/13 17:40:38;;;;;;;2.70;2.40;;;;;;;21.70;67.35;98523.17;435293;1264;108368;-43
2023/07/13 17:50:49;;;;;;;4.80;1.90;;;;;;;21.61;67.40;98513.52;435302;1251;99330;-41
2023/07/13 18:00:56;;;;;;;4.10;2.60;;;;;;;21.33;67.52;98511.84;435459;1251;108062;-42
2023/07/13 18:21:10;;;;;;;2.70;2.40;;;;;;;20.62;68.46;98533.91;435250;1256;110725;-42
2023/07/13 18:31:18;;;;;;;;;;;;;;;20.27;69.31;98536.64;435246;1257;107962;-43
2023/07/13 18:41:25;;;;;;;8.20;3.90;;;;;;;20.04;69.99;98535.10;435322;1256;99260;-43
2023/07/13 18:51:32;;;;;;;8.50;3.80;;;;;;;19.91;70.28;98539.07;435165;1257;108378;-44
2023/07/13 19:01:40;;;;;;;8.10;3.90;;;;;;;19.78;70.44;98556.50;435196;1251;97975;-43
2023/07/13 19:11:46;;;;;;;7.40;5.80;;;;;;;19.67;71.11;98568.31;435399;1257;111641;-42
2023/07/13 19:21:57;;;;;;;8.40;5.70;;;;;;;19.65;71.34;98571.56;435266;1251;108251;-43
2023/07/13 19:32:05;;;;;;;11.00;6.10;;;;;;;19.73;71.59;98578.25;435538;1251;99211;-42
2023/07/13 19:42:11;;;;;;;9.00;6.50;;;;;;;19.65;71.43;98584.70;435219;1253;108907;-43
2023/07/13 19:52:21;;;;;;;10.10;5.40;;;;;;;19.48;71.82;98601.41;435054;1256;99224;-44
2023/07/13 20:02:28;;;;;;;11.30;6.80;;;;;;;19.17;72.06;98591.45;435307;1251;111214;-42
2023/07/13 20:12:37;;;;;;;7.10;5.60;;;;;;;18.74;72.44;98609.96;435226;1257;107160;-43
2023/07/13 20:22:44;;;;;;;6.60;5.70;;;;;;;18.49;73.33;98613.89;435373;1251;99240;-42
2023/07/13 20:32:49;;;;;;;11.30;5.60;;;;;;;18.37;73.75;98612.42;435306;1256;108283;-43
2023/07/13 20:53:03;;;;;;;8.80;5.50;;;;;;;18.12;74.73;98624.88;435383;1251;110885;-43
2023/07/13 21:03:22;;;;;;;;;;;;;;;17.96;75.15;98634.35;435307;1251;108241;-43
2023/07/13 21:13:29;;;;;;;9.30;5.90;;;;;;;17.85;75.68;98657.53;435232;1257;99215;-42
2023/07/13 21:33:43;;;;;;;10.70;5.80;;;;;;;17.72;76.33;98660.73;435223;1256;99234;-42
2023/07/13 21:43:51;;;;;;;8.80;6.70;;;;;;;17.72;76.50;98660.95;435307;1256;111918;-41
2023/07/13 22:04:05;;;;;;;8.50;5.80;;;;;;;17.50;76.79;98652.31;435350;1265;99217;-42
2023/07/13 22:14:11;;;;;;;12.00;5.30;;;;;;;17.65;76.97;98650.48;435319;1251;107576;-43
2023/07/13 22:34:26;;;;;;;6.70;4.40;;;;;;;17.92;77.07;98661.91;435390;1251;111861;-41
2023/07/13 22:54:41;;;;;;;6.20;4.60;;;;;;;17.60;76.47;98677.63;435368;1256;99234;-40
2023/07/13 23:14:55;;;;;;;4.70;4.20;;;;;;;17.08;76.86;98679.33;435176;1256;99241;-42
2023/07/13 23:35:11;;;;;;;5.90;4.50;;;;;;;16.69;77.47;98672.64;435301;1254;105602;-43
2023/07/13 23:45:16;;;;;;;7.20;4.80;;;;;;;16.55;77.66;98671.56;435365;1251;99231;-45
2023/07/13 23:55:25;;;;;;;10.40;5.00;;;;;;;16.40;77.72;98665.84;435319;1256;107551;-44
